createdAt,value
2023-03-20T00:02:07.844Z,6.23
2023-03-20T00:04:35.802Z,6.28
2023-03-20T00:07:04.041Z,6.30
2023-03-20T00:09:33.132Z,6.31
2023-03-20T00:12:01.436Z,6.32
2023-03-20T00:14:29.608Z,6.34
2023-03-20T00:16:57.742Z,6.40
2023-03-20T00:19:27.655Z,6.43
2023-03-20T00:21:55.837Z,6.44
2023-03-20T00:24:24.330Z,6.44
2023-03-20T00:26:52.427Z,6.47
2023-03-20T00:29:23.035Z,6.48
2023-03-20T00:31:51.333Z,6.48
2023-03-20T00:34:22.307Z,6.45
2023-03-20T00:36:52.010Z,6.42
2023-03-20T00:39:20.192Z,6.38
2023-03-20T00:42:06.784Z,6.38
2023-03-20T00:44:41.892Z,6.41
2023-03-20T00:47:19.922Z,6.44
2023-03-20T00:49:48.673Z,6.45
2023-03-20T00:52:17.896Z,6.46
2023-03-20T00:54:45.862Z,6.46
2023-03-20T00:57:22.646Z,6.45
2023-03-20T00:59:56.246Z,6.44
2023-03-20T01:02:26.866Z,6.44
2023-03-20T01:04:55.051Z,6.42
2023-03-20T01:07:23.017Z,6.40
2023-03-20T01:09:51.207Z,6.38
2023-03-20T01:12:20.513Z,6.38
2023-03-20T01:14:58.147Z,6.40
2023-03-20T01:17:26.982Z,6.45
2023-03-20T01:19:55.100Z,6.50
2023-03-20T01:22:23.142Z,6.55
2023-03-20T01:24:51.137Z,6.55
2023-03-20T01:27:19.862Z,6.51
2023-03-20T01:29:47.988Z,6.47
2023-03-20T01:32:17.981Z,6.42
2023-03-20T01:34:48.515Z,6.38
2023-03-20T01:37:27.172Z,6.39
2023-03-20T01:39:56.692Z,6.42
2023-03-20T01:42:25.091Z,6.42
2023-03-20T01:44:53.698Z,6.41
2023-03-20T01:47:24.068Z,6.39
2023-03-20T01:50:24.597Z,6.38
2023-03-20T01:53:26.088Z,6.41
2023-03-20T01:55:57.446Z,6.48
2023-03-20T01:58:39.005Z,6.53
2023-03-20T02:01:07.174Z,6.56
2023-03-20T02:03:35.286Z,6.56
2023-03-20T02:06:38.616Z,6.56
2023-03-20T02:09:15.624Z,6.58
2023-03-20T02:11:44.626Z,6.63
2023-03-20T02:14:12.898Z,6.69
2023-03-20T02:16:48.928Z,6.71
2023-03-20T02:19:51.786Z,6.71
2023-03-20T02:22:50.814Z,6.69
2023-03-20T02:25:48.320Z,6.64
2023-03-20T02:28:44.586Z,6.58
2023-03-20T02:31:40.976Z,6.53
2023-03-20T02:34:17.624Z,6.51
2023-03-20T02:37:21.538Z,6.47
2023-03-20T02:40:19.294Z,6.45
2023-03-20T02:43:00.143Z,6.40
2023-03-20T02:45:29.597Z,6.36
2023-03-20T02:48:49.464Z,6.33
2023-03-20T02:51:37.702Z,6.35
2023-03-20T02:54:11.567Z,6.38
2023-03-20T02:56:55.203Z,6.40
2023-03-20T02:59:35.584Z,6.43
2023-03-20T03:02:08.781Z,6.46
2023-03-20T03:04:39.577Z,6.49
2023-03-20T03:07:08.997Z,6.51
2023-03-20T03:09:41.597Z,6.54
2023-03-20T03:12:15.266Z,6.59
2023-03-20T03:14:50.411Z,6.64
2023-03-20T03:17:20.000Z,6.66
2023-03-20T03:19:50.042Z,6.67
2023-03-20T03:22:18.189Z,6.66
2023-03-20T03:24:47.977Z,6.68
2023-03-20T03:27:22.583Z,6.73
2023-03-20T03:29:54.352Z,6.79
2023-03-20T03:32:38.834Z,6.84
2023-03-20T03:35:07.625Z,6.87
2023-03-20T03:38:01.651Z,6.92
2023-03-20T03:40:37.189Z,6.96
2023-03-20T03:43:27.556Z,6.98
2023-03-20T03:46:01.463Z,6.97
2023-03-20T03:48:44.496Z,6.95
2023-03-20T03:51:15.004Z,6.92
2023-03-20T03:54:01.164Z,6.90
2023-03-20T03:56:30.693Z,6.84
2023-03-20T03:59:01.351Z,6.76
2023-03-20T04:01:29.503Z,6.66
2023-03-20T04:03:59.177Z,6.56
2023-03-20T04:06:27.501Z,6.48
2023-03-20T04:08:55.704Z,6.45
2023-03-20T04:11:24.912Z,6.45
2023-03-20T04:13:52.904Z,6.47
2023-03-20T04:16:22.761Z,6.49
2023-03-20T04:18:51.268Z,6.50
2023-03-20T04:21:19.643Z,6.53
2023-03-20T04:23:47.891Z,6.54
2023-03-20T04:26:15.947Z,6.56
2023-03-20T04:28:43.949Z,6.56
2023-03-20T04:31:30.958Z,6.56
2023-03-20T04:34:19.708Z,6.54
2023-03-20T04:37:02.408Z,6.51
2023-03-20T04:39:45.117Z,6.50
2023-03-20T04:42:16.913Z,6.49
2023-03-20T04:44:45.043Z,6.46
2023-03-20T04:47:13.783Z,6.44
2023-03-20T04:49:43.691Z,6.43
2023-03-20T04:52:11.798Z,6.42
2023-03-20T04:54:42.884Z,6.42
2023-03-20T04:57:12.098Z,6.45
2023-03-20T04:59:40.747Z,6.47
2023-03-20T05:02:09.164Z,6.52
2023-03-20T05:04:37.592Z,6.56
2023-03-20T05:07:06.114Z,6.59
2023-03-20T05:09:46.198Z,6.63
2023-03-20T05:12:15.474Z,6.67
2023-03-20T05:15:02.532Z,6.69
2023-03-20T05:21:10.452Z,6.64
2023-03-20T05:24:14.145Z,6.66
2023-03-20T05:27:00.836Z,6.70
2023-03-20T05:29:45.030Z,6.72
2023-03-20T05:32:31.485Z,6.75
2023-03-20T05:35:12.049Z,6.79
2023-03-20T05:37:54.347Z,6.85
2023-03-20T05:40:46.450Z,6.89
2023-03-20T05:43:27.107Z,6.90
2023-03-20T05:46:03.702Z,6.93
2023-03-20T05:48:52.196Z,6.93
2023-03-20T05:51:34.051Z,6.96
2023-03-20T05:54:08.850Z,6.97
2023-03-20T05:56:42.740Z,7.00
2023-03-20T05:59:29.003Z,7.04
2023-03-20T06:02:30.129Z,7.12
2023-03-20T06:05:02.881Z,7.19
2023-03-20T06:07:36.940Z,7.26
2023-03-20T06:10:09.664Z,7.35
2023-03-20T06:12:41.632Z,7.44
2023-03-20T06:15:10.023Z,7.46
2023-03-20T06:17:41.649Z,7.44
2023-03-20T06:20:11.942Z,7.44
2023-03-20T06:22:40.246Z,7.46
2023-03-20T06:25:08.837Z,7.49
2023-03-20T06:27:40.753Z,7.54
2023-03-20T06:30:09.544Z,7.58
2023-03-20T06:32:37.947Z,7.62
2023-03-20T06:35:07.790Z,7.65
2023-03-20T06:37:36.686Z,7.71
2023-03-20T06:40:10.487Z,7.81
2023-03-20T06:42:40.050Z,7.92
2023-03-20T06:45:08.536Z,8.05
2023-03-20T06:48:09.227Z,8.20
2023-03-20T06:50:37.388Z,8.37
2023-03-20T06:53:06.892Z,8.57
2023-03-20T06:55:49.355Z,8.79
2023-03-20T06:58:17.559Z,8.97
2023-03-20T07:00:46.798Z,9.12
2023-03-20T07:03:15.822Z,9.27
2023-03-20T07:05:46.178Z,9.39
2023-03-20T07:08:15.446Z,9.49
2023-03-20T07:10:43.443Z,9.58
2023-03-20T07:13:12.295Z,9.66
2023-03-20T07:15:50.632Z,9.69
2023-03-20T07:18:26.129Z,9.75
2023-03-20T07:20:56.404Z,9.81
2023-03-20T07:23:24.436Z,9.81
2023-03-20T07:25:53.119Z,9.74
2023-03-20T07:28:21.254Z,9.63
2023-03-20T07:30:53.285Z,9.50
2023-03-20T07:33:21.409Z,9.41
2023-03-20T07:35:54.391Z,9.31
2023-03-20T07:38:22.509Z,9.24
2023-03-20T07:40:58.343Z,9.21
2023-03-20T07:43:26.306Z,9.17
2023-03-20T07:46:26.799Z,9.09
2023-03-20T07:48:56.822Z,9.00
2023-03-20T07:51:26.886Z,8.99
2023-03-20T07:53:54.777Z,8.94
2023-03-20T07:56:22.933Z,8.95
2023-03-20T07:58:51.160Z,8.92
2023-03-20T08:01:19.361Z,8.90
2023-03-20T08:03:47.755Z,8.90
2023-03-20T08:06:16.054Z,8.88
2023-03-20T08:08:47.222Z,8.88
2023-03-20T08:11:15.755Z,8.88
2023-03-20T08:13:44.091Z,8.88
2023-03-20T08:16:12.559Z,8.90
2023-03-20T08:18:40.868Z,8.98
2023-03-20T08:21:09.745Z,9.12
2023-03-20T08:23:37.857Z,9.30
2023-03-20T08:26:06.146Z,9.48
2023-03-20T08:28:46.488Z,9.68
2023-03-20T08:31:17.522Z,9.82
2023-03-20T08:33:46.662Z,9.97
2023-03-20T08:36:16.090Z,10.06
2023-03-20T08:38:44.628Z,10.22
2023-03-20T08:41:12.788Z,10.27
2023-03-20T08:43:41.202Z,10.34
2023-03-20T08:46:09.721Z,10.48
2023-03-20T08:48:37.815Z,10.58
2023-03-20T08:51:06.429Z,10.85
2023-03-20T08:53:34.800Z,11.32
2023-03-20T08:56:03.151Z,11.86
2023-03-20T08:58:31.350Z,12.38
2023-03-20T09:01:04.985Z,12.76
2023-03-20T09:03:33.378Z,13.02
2023-03-20T09:06:01.568Z,13.24
2023-03-20T09:08:29.869Z,13.93
2023-03-20T09:10:58.096Z,14.37
2023-03-20T09:13:28.050Z,14.45
2023-03-20T09:15:57.373Z,14.53
2023-03-20T09:18:26.010Z,14.45
2023-03-20T09:20:54.135Z,14.23
2023-03-20T09:23:22.193Z,13.93
2023-03-20T09:25:50.382Z,13.69
2023-03-20T09:28:18.666Z,13.63
2023-03-20T09:30:46.981Z,13.46
2023-03-20T09:33:16.387Z,13.23
2023-03-20T09:35:44.608Z,13.08
2023-03-20T09:38:12.659Z,12.95
2023-03-20T09:40:49.961Z,12.72
2023-03-20T09:43:30.089Z,12.41
2023-03-20T09:46:26.456Z,12.14
2023-03-20T09:48:59.015Z,12.05
2023-03-20T09:51:44.469Z,12.05
2023-03-20T09:54:28.262Z,12.04
2023-03-20T09:56:57.282Z,12.09
2023-03-20T09:59:26.334Z,12.19
2023-03-20T10:01:56.525Z,12.34
2023-03-20T10:04:26.468Z,12.52
2023-03-20T10:06:54.843Z,12.73
2023-03-20T10:09:23.611Z,13.09
2023-03-20T10:12:23.314Z,13.23
2023-03-20T10:15:15.174Z,13.38
2023-03-20T10:17:52.084Z,13.55
2023-03-20T10:20:23.345Z,13.50
2023-03-20T10:23:13.694Z,13.53
2023-03-20T10:25:43.862Z,13.63
2023-03-20T10:28:20.610Z,13.88
2023-03-20T10:31:02.964Z,14.01
2023-03-20T10:33:40.242Z,14.30
2023-03-20T10:36:10.522Z,14.41
2023-03-20T10:38:50.790Z,14.49
2023-03-20T10:41:24.831Z,14.45
2023-03-20T10:43:53.077Z,14.49
2023-03-20T10:46:24.425Z,14.50
2023-03-20T10:49:02.028Z,14.60
2023-03-20T10:51:41.636Z,14.68
2023-03-20T10:54:23.273Z,14.80
2023-03-20T10:56:51.629Z,14.97
2023-03-20T10:59:33.148Z,15.04
2023-03-20T11:02:01.195Z,15.05
2023-03-20T11:04:29.314Z,15.06
2023-03-20T11:07:23.533Z,15.06
2023-03-20T11:10:08.197Z,15.08
2023-03-20T11:12:40.789Z,15.04
2023-03-20T11:15:26.581Z,15.01
2023-03-20T11:17:59.514Z,15.10
2023-03-20T11:20:33.184Z,15.36
2023-03-20T11:23:06.469Z,15.69
2023-03-20T11:25:39.056Z,16.07
2023-03-20T11:28:29.376Z,16.49
2023-03-20T11:31:07.134Z,16.52
2023-03-20T11:33:38.159Z,16.29
2023-03-20T11:36:27.878Z,16.03
2023-03-20T11:39:16.802Z,16.22
2023-03-20T11:41:44.737Z,16.39
2023-03-20T11:44:25.812Z,16.39
2023-03-20T11:47:12.573Z,16.70
2023-03-20T11:49:55.090Z,17.15
2023-03-20T11:52:32.838Z,17.58
2023-03-20T11:55:03.449Z,17.85
2023-03-20T11:57:31.419Z,17.97
2023-03-20T12:00:06.973Z,18.06
2023-03-20T12:02:35.198Z,17.59
2023-03-20T12:05:08.065Z,17.25
2023-03-20T12:07:36.970Z,16.93
2023-03-20T12:10:11.078Z,16.76
2023-03-20T12:12:55.053Z,16.67
2023-03-20T12:15:26.482Z,16.67
2023-03-20T12:18:16.731Z,16.58
2023-03-20T12:21:08.614Z,16.62
2023-03-20T12:23:37.966Z,16.66
2023-03-20T12:26:09.732Z,16.84
2023-03-20T12:28:46.996Z,16.82
2023-03-20T12:31:33.109Z,16.88
2023-03-20T12:34:26.029Z,16.74
2023-03-20T12:36:55.906Z,16.89
2023-03-20T12:39:25.984Z,16.82
2023-03-20T12:42:05.132Z,16.71
2023-03-20T12:44:35.288Z,16.72
2023-03-20T12:47:37.658Z,16.65
2023-03-20T12:50:27.008Z,16.43
2023-03-20T12:53:33.010Z,16.14
2023-03-20T12:56:07.201Z,15.82
2023-03-20T12:58:45.991Z,15.61
2023-03-20T13:01:21.981Z,15.47
2023-03-20T13:03:59.194Z,15.32
2023-03-20T13:06:39.089Z,15.45
2023-03-20T13:09:35.637Z,15.55
2023-03-20T13:12:28.255Z,15.80
2023-03-20T13:15:05.522Z,15.94
2023-03-20T13:17:52.526Z,16.03
2023-03-20T13:20:27.369Z,16.22
2023-03-20T13:23:04.488Z,16.21
2023-03-20T13:25:57.233Z,16.17
2023-03-20T13:28:48.924Z,16.30
2023-03-20T13:31:44.741Z,16.39
2023-03-20T13:34:37.018Z,16.63
2023-03-20T13:37:23.389Z,16.75
2023-03-20T13:40:07.092Z,16.78
2023-03-20T13:42:39.046Z,16.88
2023-03-20T13:45:28.934Z,16.93
2023-03-20T13:48:00.051Z,16.74
2023-03-20T13:50:50.724Z,16.60
2023-03-20T13:53:44.221Z,16.43
2023-03-20T13:56:12.360Z,16.18
2023-03-20T13:58:57.001Z,15.97
2023-03-20T14:01:31.091Z,15.71
2023-03-20T14:03:59.235Z,15.50
2023-03-20T14:06:27.163Z,15.42
2023-03-20T14:08:55.378Z,15.32
2023-03-20T14:11:33.270Z,15.26
2023-03-20T14:14:19.593Z,15.13
2023-03-20T14:16:47.828Z,15.02
2023-03-20T14:19:20.965Z,15.01
2023-03-20T14:21:53.158Z,14.95
2023-03-20T14:24:21.463Z,15.04
2023-03-20T14:26:51.482Z,15.24
2023-03-20T14:29:22.893Z,15.50
2023-03-20T14:31:52.535Z,15.73
2023-03-20T14:34:25.963Z,15.81
2023-03-20T14:37:01.381Z,15.79
2023-03-20T14:39:50.981Z,15.64
2023-03-20T14:43:01.696Z,15.51
2023-03-20T14:45:38.764Z,15.28
2023-03-20T14:48:09.680Z,15.12
2023-03-20T14:53:37.711Z,14.75
2023-03-20T14:56:13.495Z,14.61
2023-03-20T14:59:00.816Z,14.46
2023-03-20T15:01:37.878Z,14.28
2023-03-20T15:04:26.080Z,14.25
2023-03-20T15:07:16.124Z,14.27
2023-03-20T15:09:48.519Z,14.38
2023-03-20T15:12:21.750Z,14.18
2023-03-20T15:14:57.504Z,14.09
2023-03-20T15:17:36.552Z,13.88
2023-03-20T15:20:31.559Z,13.59
2023-03-20T15:23:01.727Z,13.43
2023-03-20T15:25:36.605Z,13.54
2023-03-20T15:28:07.888Z,13.45
2023-03-20T15:30:38.647Z,13.48
2023-03-20T15:33:17.722Z,13.56
2023-03-20T15:35:47.351Z,13.46
2023-03-20T15:38:16.392Z,13.22
2023-03-20T15:40:51.057Z,12.98
2023-03-20T15:43:24.945Z,12.82
2023-03-20T15:46:17.545Z,12.59
2023-03-20T15:48:51.343Z,12.40
2023-03-20T15:51:19.355Z,12.22
2023-03-20T15:53:48.047Z,11.96
2023-03-20T15:56:19.193Z,11.86
2023-03-20T15:58:49.756Z,11.65
2023-03-20T16:01:19.620Z,11.49
2023-03-20T16:03:48.799Z,11.33
2023-03-20T16:06:19.621Z,11.29
2023-03-20T16:08:58.726Z,11.15
2023-03-20T16:11:40.870Z,11.07
2023-03-20T16:14:19.155Z,11.01
2023-03-20T16:16:48.508Z,10.94
2023-03-20T16:19:16.947Z,10.87
2023-03-20T16:22:14.902Z,10.83
2023-03-20T16:24:59.059Z,10.74
2023-03-20T16:27:34.400Z,10.65
2023-03-20T16:30:07.687Z,10.60
2023-03-20T16:32:39.764Z,10.56
2023-03-20T16:35:32.651Z,10.53
2023-03-20T16:38:02.565Z,10.51
2023-03-20T16:40:37.396Z,10.50
2023-03-20T16:43:14.576Z,10.43
2023-03-20T16:45:45.024Z,10.36
2023-03-20T16:48:13.488Z,10.33
2023-03-20T16:50:42.528Z,10.30
2023-03-20T16:53:19.760Z,10.27
2023-03-20T16:55:49.964Z,10.25
2023-03-20T16:58:20.877Z,10.23
2023-03-20T17:00:54.825Z,10.22
2023-03-20T17:03:38.199Z,10.17
2023-03-20T17:06:11.476Z,10.15
2023-03-20T17:08:45.258Z,10.17
2023-03-20T17:11:15.505Z,10.12
2023-03-20T17:13:43.815Z,10.10
2023-03-20T17:16:19.391Z,10.07
2023-03-20T17:18:58.654Z,10.03
2023-03-20T17:21:26.815Z,9.99
2023-03-20T17:23:55.400Z,10.01
2023-03-20T17:26:23.784Z,9.96
2023-03-20T17:28:51.743Z,9.95
2023-03-20T17:31:19.791Z,9.93
2023-03-20T17:33:49.496Z,9.91
2023-03-20T17:36:26.724Z,9.85
2023-03-20T17:38:55.215Z,9.76
2023-03-20T17:41:23.441Z,9.72
2023-03-20T17:43:56.396Z,9.66
2023-03-20T17:46:29.521Z,9.59
2023-03-20T17:49:08.131Z,9.56
2023-03-20T17:51:37.406Z,9.52
2023-03-20T17:54:05.665Z,9.49
2023-03-20T17:56:33.667Z,9.47
2023-03-20T17:59:03.980Z,9.47
2023-03-20T18:01:32.915Z,9.45
2023-03-20T18:04:01.356Z,9.43
2023-03-20T18:06:31.498Z,9.41
2023-03-20T18:09:00.598Z,9.39
2023-03-20T18:11:28.890Z,9.40
2023-03-20T18:13:56.961Z,9.42
2023-03-20T18:16:27.105Z,9.43
2023-03-20T18:18:55.249Z,9.46
2023-03-20T18:21:23.311Z,9.49
2023-03-20T18:23:51.344Z,9.51
2023-03-20T18:26:25.792Z,9.53
2023-03-20T18:28:54.801Z,9.52
2023-03-20T18:31:22.906Z,9.49
2023-03-20T18:33:52.284Z,9.50
2023-03-20T18:36:22.143Z,9.48
2023-03-20T18:38:50.904Z,9.49
2023-03-20T18:41:18.937Z,9.50
2023-03-20T18:43:46.854Z,9.52
2023-03-20T18:46:16.025Z,9.53
2023-03-20T18:48:44.593Z,9.54
2023-03-20T18:51:13.100Z,9.53
2023-03-20T18:53:42.607Z,9.53
2023-03-20T18:56:18.598Z,9.54
2023-03-20T18:58:46.995Z,9.53
2023-03-20T19:01:16.174Z,9.51
2023-03-20T19:03:44.918Z,9.50
2023-03-20T19:06:21.464Z,9.50
2023-03-20T19:08:50.893Z,9.49
2023-03-20T19:11:21.372Z,9.48
2023-03-20T19:13:53.688Z,9.47
2023-03-20T19:16:26.381Z,9.46
2023-03-20T19:18:56.171Z,9.44
2023-03-20T19:21:26.644Z,9.44
2023-03-20T19:23:59.609Z,9.43
2023-03-20T19:26:30.458Z,9.43
2023-03-20T19:28:59.077Z,9.41
2023-03-20T19:31:28.142Z,9.40
2023-03-20T19:33:57.003Z,9.42
2023-03-20T19:36:30.755Z,9.41
2023-03-20T19:38:59.888Z,9.42
2023-03-20T19:41:28.934Z,9.44
2023-03-20T19:43:57.437Z,9.45
2023-03-20T19:46:42.784Z,9.47
2023-03-20T19:49:19.607Z,9.48
2023-03-20T19:51:49.108Z,9.46
2023-03-20T19:54:17.468Z,9.46
2023-03-20T19:56:45.555Z,9.43
2023-03-20T19:59:16.326Z,9.41
2023-03-20T20:01:45.764Z,9.39
2023-03-20T20:04:14.300Z,9.37
2023-03-20T20:06:42.570Z,9.35
2023-03-20T20:09:10.996Z,9.33
2023-03-20T20:11:39.064Z,9.33
2023-03-20T20:14:10.553Z,9.30
2023-03-20T20:16:43.219Z,9.24
2023-03-20T20:19:11.763Z,9.18
2023-03-20T20:22:17.304Z,9.12
2023-03-20T20:24:27.895Z,9.05
2023-03-20T20:27:14.719Z,8.99
2023-03-20T20:29:46.970Z,8.93
2023-03-20T20:32:15.964Z,8.86
2023-03-20T20:40:21.513Z,8.62
2023-03-20T20:42:52.020Z,8.54
2023-03-20T20:45:21.532Z,8.47
2023-03-20T20:47:49.665Z,8.40
2023-03-20T20:50:19.515Z,8.33
2023-03-20T20:52:47.895Z,8.28
2023-03-20T20:55:23.022Z,8.25
2023-03-20T20:57:52.501Z,8.20
2023-03-20T21:00:21.644Z,8.16
2023-03-20T21:02:49.798Z,8.11
2023-03-20T21:05:18.034Z,8.11
2023-03-20T21:07:47.731Z,8.08
2023-03-20T21:10:17.625Z,8.04
2023-03-20T21:12:58.668Z,8.03
2023-03-20T21:15:27.912Z,8.00
2023-03-20T21:18:01.438Z,8.00
2023-03-20T21:20:31.082Z,7.98
2023-03-20T21:22:59.234Z,7.96
2023-03-20T21:25:39.561Z,7.95
2023-03-20T21:28:09.388Z,7.98
2023-03-20T21:30:44.247Z,7.97
2023-03-20T21:33:19.728Z,7.93
2023-03-20T21:35:48.524Z,7.91
2023-03-20T21:41:09.404Z,7.80
2023-03-20T21:43:37.534Z,7.70
2023-03-20T21:52:36.032Z,7.48
2023-03-20T21:55:06.116Z,7.41
2023-03-20T21:58:03.368Z,7.34
2023-03-20T22:02:58.940Z,7.23
2023-03-20T22:09:27.462Z,7.18
2023-03-20T22:42:44.051Z,7.03
2023-03-20T22:45:04.491Z,7.03
2023-03-20T22:47:35.510Z,7.02
2023-03-20T22:50:03.618Z,7.02
2023-03-20T22:52:48.637Z,7.04
2023-03-20T22:55:17.541Z,7.06
2023-03-20T22:58:04.032Z,7.06
2023-03-20T23:00:35.865Z,7.06
2023-03-20T23:03:33.723Z,7.06
2023-03-20T23:05:55.780Z,7.07
2023-03-20T23:08:24.775Z,7.07
2023-03-20T23:10:53.230Z,7.06
2023-03-20T23:13:22.515Z,7.04
2023-03-20T23:15:50.938Z,7.03
2023-03-20T23:18:18.901Z,7.04
2023-03-20T23:20:46.813Z,7.06
2023-03-20T23:23:14.811Z,7.06
2023-03-20T23:25:42.969Z,7.06
2023-03-20T23:28:10.967Z,7.04
2023-03-20T23:30:46.620Z,7.05
2023-03-20T23:33:17.717Z,7.05
2023-03-20T23:35:46.508Z,7.03
2023-03-20T23:38:14.653Z,7.02
2023-03-20T23:40:48.502Z,7.03
2023-03-20T23:43:16.575Z,7.03
2023-03-20T23:45:45.258Z,7.04
2023-03-20T23:48:13.336Z,7.04
2023-03-20T23:50:52.135Z,7.04
2023-03-20T23:53:21.463Z,7.05
2023-03-20T23:55:50.897Z,7.05
2023-03-20T23:58:19.122Z,7.05
